sensor_id;sensor_type;location;lat;lon;timestamp;pressure;altitude;pressure_sealevel;temperature;humidity
45285;BME280;31026;43.780;25.948;2022-08-30T00:03:08;100649.78;;;24.09;55.90
45285;BME280;31026;43.780;25.948;2022-08-30T00:05:38;100648.44;;;24.05;56.08
45285;BME280;31026;43.780;25.948;2022-08-30T00:08:13;100658.38;;;24.13;55.82
45285;BME280;31026;43.780;25.948;2022-08-30T00:10:44;100650.47;;;24.03;56.00
45285;BME280;31026;43.780;25.948;2022-08-30T00:13:17;100656.38;;;24.15;55.80
45285;BME280;31026;43.780;25.948;2022-08-30T00:15:50;100650.66;;;24.10;55.98
45285;BME280;31026;43.780;25.948;2022-08-30T00:18:23;100661.44;;;24.10;56.15
45285;BME280;31026;43.780;25.948;2022-08-30T00:20:56;100653.16;;;24.11;55.83
45285;BME280;31026;43.780;25.948;2022-08-30T00:23:24;100650.13;;;24.06;55.94
45285;BME280;31026;43.780;25.948;2022-08-30T00:25:53;100648.94;;;24.09;55.97
45285;BME280;31026;43.780;25.948;2022-08-30T00:28:30;100656.75;;;24.04;56.08
45285;BME280;31026;43.780;25.948;2022-08-30T00:31:08;100668.38;;;24.04;56.15
45285;BME280;31026;43.780;25.948;2022-08-30T00:36:28;100651.13;;;24.05;55.78
45285;BME280;31026;43.780;25.948;2022-08-30T00:39:02;100655.03;;;24.02;55.88
45285;BME280;31026;43.780;25.948;2022-08-30T00:41:32;100659.41;;;24.12;55.55
45285;BME280;31026;43.780;25.948;2022-08-30T00:44:05;100665.66;;;24.12;55.54
45285;BME280;31026;43.780;25.948;2022-08-30T00:46:36;100666.34;;;24.14;55.84
45285;BME280;31026;43.780;25.948;2022-08-30T00:49:10;100666.19;;;24.08;55.59
45285;BME280;31026;43.780;25.948;2022-08-30T00:51:44;100667.16;;;24.15;55.34
45285;BME280;31026;43.780;25.948;2022-08-30T00:54:15;100680.34;;;24.18;55.37
45285;BME280;31026;43.780;25.948;2022-08-30T00:56:56;100686.44;;;24.12;55.59
45285;BME280;31026;43.780;25.948;2022-08-30T00:59:25;100664.84;;;24.04;55.41
45285;BME280;31026;43.780;25.948;2022-08-30T01:01:59;100675.81;;;24.02;55.76
45285;BME280;31026;43.780;25.948;2022-08-30T01:04:31;100678.00;;;24.07;55.70
45285;BME280;31026;43.780;25.948;2022-08-30T01:07:03;100659.09;;;23.98;55.82
45285;BME280;31026;43.780;25.948;2022-08-30T01:09:32;100675.47;;;24.05;55.98
45285;BME280;31026;43.780;25.948;2022-08-30T01:12:03;100668.53;;;24.11;55.81
45285;BME280;31026;43.780;25.948;2022-08-30T01:14:33;100679.50;;;24.17;55.39
45285;BME280;31026;43.780;25.948;2022-08-30T01:17:03;100664.50;;;23.98;55.67
45285;BME280;31026;43.780;25.948;2022-08-30T01:19:44;100670.41;;;24.02;55.71
45285;BME280;31026;43.780;25.948;2022-08-30T01:22:23;100668.38;;;24.04;55.82
45285;BME280;31026;43.780;25.948;2022-08-30T01:24:59;100681.19;;;24.10;55.67
45285;BME280;31026;43.780;25.948;2022-08-30T01:27:28;100682.88;;;24.03;55.79
45285;BME280;31026;43.780;25.948;2022-08-30T01:30:03;100669.91;;;23.98;55.78
45285;BME280;31026;43.780;25.948;2022-08-30T01:32:37;100686.25;;;24.05;55.59
45285;BME280;31026;43.780;25.948;2022-08-30T01:35:12;100682.56;;;24.06;55.61
45285;BME280;31026;43.780;25.948;2022-08-30T01:37:43;100673.44;;;24.07;55.58
45285;BME280;31026;43.780;25.948;2022-08-30T01:40:21;100679.03;;;24.06;55.83
45285;BME280;31026;43.780;25.948;2022-08-30T01:43:07;100680.03;;;24.05;55.89
45285;BME280;31026;43.780;25.948;2022-08-30T01:45:39;100669.38;;;24.11;55.50
45285;BME280;31026;43.780;25.948;2022-08-30T01:48:07;100681.22;;;24.02;55.84
45285;BME280;31026;43.780;25.948;2022-08-30T01:50:38;100682.88;;;24.03;55.56
45285;BME280;31026;43.780;25.948;2022-08-30T01:53:08;100678.34;;;23.95;55.53
45285;BME280;31026;43.780;25.948;2022-08-30T01:55:39;100674.81;;;23.95;55.83
45285;BME280;31026;43.780;25.948;2022-08-30T01:58:10;100672.25;;;23.93;55.55
45285;BME280;31026;43.780;25.948;2022-08-30T02:00:38;100679.50;;;24.01;55.77
45285;BME280;31026;43.780;25.948;2022-08-30T02:03:07;100685.59;;;23.95;55.66
45285;BME280;31026;43.780;25.948;2022-08-30T02:05:35;100677.50;;;23.95;55.65
45285;BME280;31026;43.780;25.948;2022-08-30T02:08:04;100671.44;;;23.93;55.59
45285;BME280;31026;43.780;25.948;2022-08-30T02:10:32;100681.41;;;23.92;55.93
45285;BME280;31026;43.780;25.948;2022-08-30T02:13:04;100693.19;;;24.08;55.77
45285;BME280;31026;43.780;25.948;2022-08-30T02:15:32;100684.22;;;24.07;55.37
45285;BME280;31026;43.780;25.948;2022-08-30T02:18:02;100670.41;;;24.02;55.80
45285;BME280;31026;43.780;25.948;2022-08-30T02:20:30;100682.22;;;24.01;55.60
45285;BME280;31026;43.780;25.948;2022-08-30T02:22:59;100682.41;;;23.99;55.83
45285;BME280;31026;43.780;25.948;2022-08-30T02:25:27;100690.31;;;24.01;56.05
45285;BME280;31026;43.780;25.948;2022-08-30T02:27:56;100674.81;;;23.95;55.73
45285;BME280;31026;43.780;25.948;2022-08-30T02:30:27;100684.75;;;23.94;55.74
45285;BME280;31026;43.780;25.948;2022-08-30T02:32:55;100688.13;;;23.96;55.71
45285;BME280;31026;43.780;25.948;2022-08-30T02:35:24;100689.34;;;23.94;55.92
45285;BME280;31026;43.780;25.948;2022-08-30T02:37:53;100672.44;;;24.00;55.98
45285;BME280;31026;43.780;25.948;2022-08-30T02:40:21;100693.22;;;23.99;55.98
45285;BME280;31026;43.780;25.948;2022-08-30T02:42:50;100684.75;;;23.94;56.07
45285;BME280;31026;43.780;25.948;2022-08-30T02:45:18;100641.03;;;23.74;55.85
45285;BME280;31026;43.780;25.948;2022-08-30T02:47:50;100694.22;;;23.98;55.70
45285;BME280;31026;43.780;25.948;2022-08-30T02:50:20;100699.09;;;24.03;55.67
45285;BME280;31026;43.780;25.948;2022-08-30T02:52:49;100692.53;;;24.06;55.58
45285;BME280;31026;43.780;25.948;2022-08-30T02:55:17;100690.69;;;23.98;56.08
45285;BME280;31026;43.780;25.948;2022-08-30T02:57:46;100696.56;;;24.10;55.51
45285;BME280;31026;43.780;25.948;2022-08-30T03:00:15;100701.63;;;24.05;55.49
45285;BME280;31026;43.780;25.948;2022-08-30T03:02:46;100699.59;;;24.07;55.85
45285;BME280;31026;43.780;25.948;2022-08-30T03:05:17;100700.78;;;24.04;55.77
45285;BME280;31026;43.780;25.948;2022-08-30T03:07:45;100710.41;;;24.07;55.63
45285;BME280;31026;43.780;25.948;2022-08-30T03:10:14;100713.28;;;23.97;55.94
45285;BME280;31026;43.780;25.948;2022-08-30T03:12:43;100706.38;;;24.02;55.79
45285;BME280;31026;43.780;25.948;2022-08-30T03:15:12;100706.88;;;23.98;56.32
45285;BME280;31026;43.780;25.948;2022-08-30T03:17:40;100715.81;;;23.98;56.18
45285;BME280;31026;43.780;25.948;2022-08-30T03:20:09;100718.69;;;23.97;56.49
45285;BME280;31026;43.780;25.948;2022-08-30T03:22:41;100727.47;;;23.99;56.59
45285;BME280;31026;43.780;25.948;2022-08-30T03:25:10;100724.44;;;24.10;56.17
45285;BME280;31026;43.780;25.948;2022-08-30T03:27:38;100715.31;;;24.03;56.47
45285;BME280;31026;43.780;25.948;2022-08-30T03:30:07;100735.41;;;24.09;56.41
45285;BME280;31026;43.780;25.948;2022-08-30T03:32:37;100719.84;;;24.11;56.01
45285;BME280;31026;43.780;25.948;2022-08-30T03:35:06;100720.72;;;23.95;56.00
45285;BME280;31026;43.780;25.948;2022-08-30T03:37:35;100758.22;;;23.90;56.18
45285;BME280;31026;43.780;25.948;2022-08-30T03:40:07;100748.41;;;23.89;56.16
45285;BME280;31026;43.780;25.948;2022-08-30T03:42:36;100762.75;;;23.89;56.39
45285;BME280;31026;43.780;25.948;2022-08-30T03:45:06;100753.97;;;23.87;56.53
45285;BME280;31026;43.780;25.948;2022-08-30T03:47:35;100746.69;;;23.79;56.63
45285;BME280;31026;43.780;25.948;2022-08-30T03:50:04;100759.19;;;23.80;56.70
45285;BME280;31026;43.780;25.948;2022-08-30T03:52:33;100765.91;;;23.76;56.83
45285;BME280;31026;43.780;25.948;2022-08-30T03:55:02;100777.22;;;23.72;56.91
45285;BME280;31026;43.780;25.948;2022-08-30T03:57:33;100773.66;;;23.71;57.04
45285;BME280;31026;43.780;25.948;2022-08-30T04:00:05;100760.16;;;23.71;57.15
45285;BME280;31026;43.780;25.948;2022-08-30T04:02:34;100777.38;;;23.70;57.11
45285;BME280;31026;43.780;25.948;2022-08-30T04:05:03;100782.44;;;23.73;57.31
45285;BME280;31026;43.780;25.948;2022-08-30T04:07:31;100782.63;;;23.72;57.09
45285;BME280;31026;43.780;25.948;2022-08-30T04:10:00;100780.94;;;23.71;57.28
45285;BME280;31026;43.780;25.948;2022-08-30T04:12:28;100784.81;;;23.68;57.54
45285;BME280;31026;43.780;25.948;2022-08-30T04:14:59;100803.00;;;23.50;58.65
45285;BME280;31026;43.780;25.948;2022-08-30T04:17:28;100804.38;;;23.62;58.71
45285;BME280;31026;43.780;25.948;2022-08-30T04:19:57;100808.75;;;23.71;58.69
45285;BME280;31026;43.780;25.948;2022-08-30T04:22:25;100801.72;;;23.78;58.66
45285;BME280;31026;43.780;25.948;2022-08-30T04:24:54;100792.28;;;23.82;58.02
45285;BME280;31026;43.780;25.948;2022-08-30T04:27:22;100810.88;;;23.86;58.48
45285;BME280;31026;43.780;25.948;2022-08-30T04:29:51;100824.38;;;23.86;59.15
45285;BME280;31026;43.780;25.948;2022-08-30T04:32:23;100804.50;;;23.52;60.60
45285;BME280;31026;43.780;25.948;2022-08-30T04:34:54;100815.50;;;23.59;61.04
45285;BME280;31026;43.780;25.948;2022-08-30T04:37:23;100828.34;;;23.73;60.82
45285;BME280;31026;43.780;25.948;2022-08-30T04:39:54;100831.81;;;23.92;60.25
45285;BME280;31026;43.780;25.948;2022-08-30T04:42:25;100817.78;;;23.80;60.22
45285;BME280;31026;43.780;25.948;2022-08-30T04:44:55;100813.28;;;23.54;61.45
45285;BME280;31026;43.780;25.948;2022-08-30T04:47:27;100831.91;;;23.74;60.83
45285;BME280;31026;43.780;25.948;2022-08-30T04:49:56;100824.00;;;23.80;61.08
45285;BME280;31026;43.780;25.948;2022-08-30T04:52:24;100807.81;;;23.80;60.43
45285;BME280;31026;43.780;25.948;2022-08-30T04:54:53;100821.22;;;23.56;61.46
45285;BME280;31026;43.780;25.948;2022-08-30T04:57:22;100817.84;;;23.54;61.95
45285;BME280;31026;43.780;25.948;2022-08-30T04:59:51;100818.56;;;23.64;61.50
45285;BME280;31026;43.780;25.948;2022-08-30T05:02:20;100813.88;;;23.82;61.17
45285;BME280;31026;43.780;25.948;2022-08-30T05:04:51;100826.66;;;23.72;61.38
45285;BME280;31026;43.780;25.948;2022-08-30T05:07:32;100824.28;;;23.69;61.57
45285;BME280;31026;43.780;25.948;2022-08-30T05:10:01;100820.66;;;23.95;60.86
45285;BME280;31026;43.780;25.948;2022-08-30T05:12:30;100823.88;;;24.15;60.47
45285;BME280;31026;43.780;25.948;2022-08-30T05:14:58;100828.09;;;24.09;60.16
45285;BME280;31026;43.780;25.948;2022-08-30T05:17:27;100836.38;;;23.99;60.56
45285;BME280;31026;43.780;25.948;2022-08-30T05:19:58;100842.91;;;23.80;61.41
45285;BME280;31026;43.780;25.948;2022-08-30T05:22:27;100842.22;;;23.78;61.50
45285;BME280;31026;43.780;25.948;2022-08-30T05:24:56;100844.66;;;24.14;60.48
45285;BME280;31026;43.780;25.948;2022-08-30T05:27:25;100831.31;;;24.21;60.55
45285;BME280;31026;43.780;25.948;2022-08-30T05:29:54;100825.22;;;24.11;60.68
45285;BME280;31026;43.780;25.948;2022-08-30T05:32:23;100840.09;;;24.23;60.52
45285;BME280;31026;43.780;25.948;2022-08-30T05:34:51;100840.25;;;24.46;59.60
45285;BME280;31026;43.780;25.948;2022-08-30T05:37:22;100825.09;;;24.53;59.79
45285;BME280;31026;43.780;25.948;2022-08-30T05:39:51;100821.69;;;24.68;59.27
45285;BME280;31026;43.780;25.948;2022-08-30T05:42:20;100840.94;;;24.81;58.72
45285;BME280;31026;43.780;25.948;2022-08-30T05:44:49;100812.84;;;24.82;59.00
45285;BME280;31026;43.780;25.948;2022-08-30T05:47:18;100832.28;;;24.94;58.74
45285;BME280;31026;43.780;25.948;2022-08-30T05:49:46;100831.78;;;24.90;58.84
45285;BME280;31026;43.780;25.948;2022-08-30T05:52:15;100835.81;;;24.94;58.79
45285;BME280;31026;43.780;25.948;2022-08-30T05:54:50;100843.09;;;24.94;58.78
45285;BME280;31026;43.780;25.948;2022-08-30T05:57:18;100837.84;;;24.92;58.93
45285;BME280;31026;43.780;25.948;2022-08-30T05:59:47;100846.31;;;24.97;58.79
45285;BME280;31026;43.780;25.948;2022-08-30T06:02:15;100831.94;;;24.97;58.83
45285;BME280;31026;43.780;25.948;2022-08-30T06:04:44;100823.81;;;24.97;58.99
45285;BME280;31026;43.780;25.948;2022-08-30T06:07:13;100822.97;;;24.96;58.76
45285;BME280;31026;43.780;25.948;2022-08-30T06:09:41;100830.25;;;24.96;58.99
45285;BME280;31026;43.780;25.948;2022-08-30T06:12:12;100818.41;;;24.97;58.86
45285;BME280;31026;43.780;25.948;2022-08-30T06:14:41;100828.03;;;24.99;58.96
45285;BME280;31026;43.780;25.948;2022-08-30T06:17:09;100832.78;;;24.97;58.86
45285;BME280;31026;43.780;25.948;2022-08-30T06:19:38;100825.34;;;24.99;58.71
45285;BME280;31026;43.780;25.948;2022-08-30T06:22:07;100808.06;;;25.00;58.91
45285;BME280;31026;43.780;25.948;2022-08-30T06:24:35;100832.75;;;25.06;58.86
45285;BME280;31026;43.780;25.948;2022-08-30T06:27:04;100839.00;;;25.06;58.60
45285;BME280;31026;43.780;25.948;2022-08-30T06:29:35;100818.38;;;25.05;58.61
45285;BME280;31026;43.780;25.948;2022-08-30T06:32:04;100819.06;;;25.07;58.76
45285;BME280;31026;43.780;25.948;2022-08-30T06:34:32;100841.16;;;25.11;58.60
45285;BME280;31026;43.780;25.948;2022-08-30T06:37:01;100829.69;;;25.09;58.81
45285;BME280;31026;43.780;25.948;2022-08-30T06:39:29;100813.44;;;25.09;58.68
45285;BME280;31026;43.780;25.948;2022-08-30T06:41:57;100825.13;;;25.09;58.89
45285;BME280;31026;43.780;25.948;2022-08-30T06:44:26;100837.63;;;25.10;58.79
45285;BME280;31026;43.780;25.948;2022-08-30T06:46:57;100823.59;;;25.07;59.04
45285;BME280;31026;43.780;25.948;2022-08-30T06:49:25;100822.97;;;24.88;59.11
45285;BME280;31026;43.780;25.948;2022-08-30T06:51:54;100841.81;;;23.65;60.83
45285;BME280;31026;43.780;25.948;2022-08-30T06:54:22;100837.78;;;22.92;60.54
45285;BME280;31026;43.780;25.948;2022-08-30T06:56:51;100843.63;;;22.61;60.27
45285;BME280;31026;43.780;25.948;2022-08-30T06:59:19;100853.38;;;22.54;60.56
45285;BME280;31026;43.780;25.948;2022-08-30T07:01:48;100843.63;;;22.61;60.77
45285;BME280;31026;43.780;25.948;2022-08-30T07:04:19;100847.75;;;22.74;61.09
45285;BME280;31026;43.780;25.948;2022-08-30T07:06:47;100841.44;;;22.83;61.57
45285;BME280;31026;43.780;25.948;2022-08-30T07:09:16;100830.69;;;22.91;61.76
45285;BME280;31026;43.780;25.948;2022-08-30T07:11:44;100834.88;;;23.12;60.81
45285;BME280;31026;43.780;25.948;2022-08-30T07:14:12;100833.88;;;23.13;60.83
45285;BME280;31026;43.780;25.948;2022-08-30T07:16:41;100835.91;;;23.19;60.86
45285;BME280;31026;43.780;25.948;2022-08-30T07:19:10;100837.63;;;23.20;60.68
45285;BME280;31026;43.780;25.948;2022-08-30T07:21:39;100825.66;;;23.22;60.41
45285;BME280;31026;43.780;25.948;2022-08-30T07:24:09;100840.34;;;23.28;60.45
45285;BME280;31026;43.780;25.948;2022-08-30T07:26:39;100833.41;;;23.26;60.49
45285;BME280;31026;43.780;25.948;2022-08-30T07:29:08;100832.41;;;23.27;60.15
45285;BME280;31026;43.780;25.948;2022-08-30T07:31:37;100836.09;;;23.26;60.55
45285;BME280;31026;43.780;25.948;2022-08-30T07:34:06;100840.34;;;23.28;60.44
45285;BME280;31026;43.780;25.948;2022-08-30T07:36:35;100834.97;;;23.28;60.40
45285;BME280;31026;43.780;25.948;2022-08-30T07:39:06;100836.63;;;23.29;60.13
45285;BME280;31026;43.780;25.948;2022-08-30T07:41:35;100828.38;;;23.31;60.09
45285;BME280;31026;43.780;25.948;2022-08-30T07:44:04;100838.34;;;23.30;60.29
45285;BME280;31026;43.780;25.948;2022-08-30T07:46:33;100827.69;;;23.20;60.39
45285;BME280;31026;43.780;25.948;2022-08-30T07:49:02;100843.94;;;23.37;62.26
45285;BME280;31026;43.780;25.948;2022-08-30T07:51:31;100848.59;;;23.69;63.53
45285;BME280;31026;43.780;25.948;2022-08-30T07:53:59;100842.09;;;24.05;62.46
45285;BME280;31026;43.780;25.948;2022-08-30T07:56:31;100840.09;;;24.39;60.88
45285;BME280;31026;43.780;25.948;2022-08-30T07:58:59;100838.94;;;24.58;60.64
45285;BME280;31026;43.780;25.948;2022-08-30T08:01:27;100848.22;;;24.64;60.37
45285;BME280;31026;43.780;25.948;2022-08-30T08:03:56;100845.00;;;24.69;60.40
45285;BME280;31026;43.780;25.948;2022-08-30T08:06:24;100835.03;;;24.69;60.24
45285;BME280;31026;43.780;25.948;2022-08-30T08:08:53;100844.31;;;24.75;60.29
45285;BME280;31026;43.780;25.948;2022-08-30T08:11:26;100844.97;;;24.77;60.46
45285;BME280;31026;43.780;25.948;2022-08-30T08:13:57;100839.25;;;24.80;59.90
45285;BME280;31026;43.780;25.948;2022-08-30T08:16:26;100823.69;;;24.82;60.23
45285;BME280;31026;43.780;25.948;2022-08-30T08:18:55;100821.31;;;24.87;60.23
45285;BME280;31026;43.780;25.948;2022-08-30T08:21:24;100827.38;;;24.89;60.10
45285;BME280;31026;43.780;25.948;2022-08-30T08:23:53;100823.81;;;24.89;59.72
45285;BME280;31026;43.780;25.948;2022-08-30T08:26:21;100821.13;;;24.89;60.05
45285;BME280;31026;43.780;25.948;2022-08-30T08:28:49;100833.78;;;24.96;59.60
45285;BME280;31026;43.780;25.948;2022-08-30T08:31:21;100828.56;;;24.95;59.77
45285;BME280;31026;43.780;25.948;2022-08-30T08:33:49;100807.94;;;24.94;59.71
45285;BME280;31026;43.780;25.948;2022-08-30T08:36:18;100814.00;;;24.96;59.69
45285;BME280;31026;43.780;25.948;2022-08-30T08:38:46;100837.00;;;25.00;59.64
45285;BME280;31026;43.780;25.948;2022-08-30T08:41:26;100827.16;;;25.07;59.42
45285;BME280;31026;43.780;25.948;2022-08-30T08:43:56;100829.50;;;25.10;59.69
45285;BME280;31026;43.780;25.948;2022-08-30T08:46:29;100823.44;;;25.08;59.23
45285;BME280;31026;43.780;25.948;2022-08-30T08:49:00;100826.97;;;25.09;59.30
45285;BME280;31026;43.780;25.948;2022-08-30T08:51:30;100813.44;;;25.09;59.20
45285;BME280;31026;43.780;25.948;2022-08-30T08:54:13;100822.94;;;25.13;59.31
45285;BME280;31026;43.780;25.948;2022-08-30T08:56:43;100839.84;;;25.15;59.29
45285;BME280;31026;43.780;25.948;2022-08-30T08:59:12;100816.81;;;25.11;59.19
45285;BME280;31026;43.780;25.948;2022-08-30T09:01:44;100822.94;;;25.13;59.21
45285;BME280;31026;43.780;25.948;2022-08-30T09:04:15;100820.69;;;25.16;58.92
45285;BME280;31026;43.780;25.948;2022-08-30T09:06:46;100835.41;;;25.22;59.07
45285;BME280;31026;43.780;25.948;2022-08-30T09:09:16;100816.47;;;25.22;59.14
45285;BME280;31026;43.780;25.948;2022-08-30T09:11:46;100812.06;;;25.21;58.91
45285;BME280;31026;43.780;25.948;2022-08-30T09:14:15;100819.19;;;25.22;59.07
45285;BME280;31026;43.780;25.948;2022-08-30T09:16:50;100826.97;;;25.25;59.17
45285;BME280;31026;43.780;25.948;2022-08-30T09:19:29;100812.75;;;25.23;59.17
45285;BME280;31026;43.780;25.948;2022-08-30T09:21:58;100809.53;;;25.19;59.36
45285;BME280;31026;43.780;25.948;2022-08-30T09:24:34;100813.25;;;25.18;59.33
45285;BME280;31026;43.780;25.948;2022-08-30T09:27:12;100807.81;;;25.27;59.12
45285;BME280;31026;43.780;25.948;2022-08-30T09:29:47;100802.91;;;25.30;59.17
45285;BME280;31026;43.780;25.948;2022-08-30T09:32:24;100810.69;;;25.33;59.00
45285;BME280;31026;43.780;25.948;2022-08-30T09:34:52;100808.03;;;25.25;59.12
45285;BME280;31026;43.780;25.948;2022-08-30T09:37:25;100799.03;;;25.25;59.35
45285;BME280;31026;43.780;25.948;2022-08-30T09:39:54;100792.28;;;25.29;59.25
45285;BME280;31026;43.780;25.948;2022-08-30T09:42:24;100793.28;;;25.28;59.29
45285;BME280;31026;43.780;25.948;2022-08-30T09:44:53;100791.41;;;25.28;59.27
45285;BME280;31026;43.780;25.948;2022-08-30T09:47:38;100797.69;;;25.29;58.96
45285;BME280;31026;43.780;25.948;2022-08-30T09:50:08;100792.28;;;25.29;59.08
45285;BME280;31026;43.780;25.948;2022-08-30T09:52:40;100793.94;;;25.30;59.14
45285;BME280;31026;43.780;25.948;2022-08-30T09:55:14;100783.78;;;25.32;59.08
45285;BME280;31026;43.780;25.948;2022-08-30T09:57:51;100795.44;;;25.32;59.05
45285;BME280;31026;43.780;25.948;2022-08-30T10:00:21;100781.56;;;25.35;59.28
45285;BME280;31026;43.780;25.948;2022-08-30T10:03:00;100773.13;;;25.30;58.92
45285;BME280;31026;43.780;25.948;2022-08-30T10:05:31;100771.28;;;25.31;59.21
45285;BME280;31026;43.780;25.948;2022-08-30T10:08:05;100767.72;;;25.30;59.11
45285;BME280;31026;43.780;25.948;2022-08-30T10:10:36;100774.00;;;25.31;59.27
45285;BME280;31026;43.780;25.948;2022-08-30T10:13:15;100767.00;;;25.36;59.10
45285;BME280;31026;43.780;25.948;2022-08-30T10:15:48;100774.13;;;25.37;59.25
45285;BME280;31026;43.780;25.948;2022-08-30T10:18:23;100789.16;;;25.40;58.93
45285;BME280;31026;43.780;25.948;2022-08-30T10:20:56;100776.44;;;25.40;59.24
45285;BME280;31026;43.780;25.948;2022-08-30T10:23:26;100763.13;;;25.39;59.06
45285;BME280;31026;43.780;25.948;2022-08-30T10:25:57;100773.75;;;25.40;59.34
45285;BME280;31026;43.780;25.948;2022-08-30T10:28:28;100763.78;;;25.41;59.10
45285;BME280;31026;43.780;25.948;2022-08-30T10:30:58;100766.28;;;25.43;59.00
45285;BME280;31026;43.780;25.948;2022-08-30T10:33:32;100758.38;;;25.41;58.93
45285;BME280;31026;43.780;25.948;2022-08-30T10:36:04;100755.47;;;25.43;59.45
45285;BME280;31026;43.780;25.948;2022-08-30T10:38:35;100735.50;;;25.44;59.36
45285;BME280;31026;43.780;25.948;2022-08-30T10:41:05;100754.44;;;25.44;59.25
45285;BME280;31026;43.780;25.948;2022-08-30T10:43:44;100757.03;;;24.97;61.69
45285;BME280;31026;43.780;25.948;2022-08-30T10:46:17;100748.06;;;24.08;61.78
45285;BME280;31026;43.780;25.948;2022-08-30T10:48:49;100758.78;;;23.42;62.11
45285;BME280;31026;43.780;25.948;2022-08-30T10:51:19;100742.69;;;23.25;61.77
45285;BME280;31026;43.780;25.948;2022-08-30T10:53:51;100758.72;;;23.18;62.22
45285;BME280;31026;43.780;25.948;2022-08-30T10:56:21;100751.28;;;23.20;62.15
45285;BME280;31026;43.780;25.948;2022-08-30T10:58:53;100746.19;;;23.09;61.64
45285;BME280;31026;43.780;25.948;2022-08-30T11:01:26;100743.44;;;23.00;61.55
45285;BME280;31026;43.780;25.948;2022-08-30T11:04:06;100735.34;;;23.00;61.48
45285;BME280;31026;43.780;25.948;2022-08-30T11:06:43;100736.53;;;22.98;61.32
45285;BME280;31026;43.780;25.948;2022-08-30T11:12:03;100729.56;;;22.87;61.18
45285;BME280;31026;43.780;25.948;2022-08-30T11:14:39;100713.06;;;22.90;61.11
45285;BME280;31026;43.780;25.948;2022-08-30T11:17:10;100723.41;;;23.03;61.62
45285;BME280;31026;43.780;25.948;2022-08-30T11:19:51;100709.72;;;22.96;62.29
45285;BME280;31026;43.780;25.948;2022-08-30T11:22:21;100709.88;;;22.95;63.99
45285;BME280;31026;43.780;25.948;2022-08-30T11:25:01;100720.56;;;23.05;64.74
45285;BME280;31026;43.780;25.948;2022-08-30T11:27:40;100699.13;;;23.03;64.76
45285;BME280;31026;43.780;25.948;2022-08-30T11:32:56;100697.59;;;23.00;65.00
45285;BME280;31026;43.780;25.948;2022-08-30T11:35:38;100680.03;;;22.96;64.85
45285;BME280;31026;43.780;25.948;2022-08-30T11:38:11;100695.88;;;22.99;64.69
45285;BME280;31026;43.780;25.948;2022-08-30T11:40:44;100696.91;;;22.98;65.15
45285;BME280;31026;43.780;25.948;2022-08-30T11:46:11;100677.00;;;22.99;64.79
45285;BME280;31026;43.780;25.948;2022-08-30T11:48:47;100680.34;;;22.93;65.04
45285;BME280;31026;43.780;25.948;2022-08-30T11:51:33;100674.66;;;22.96;65.11
45285;BME280;31026;43.780;25.948;2022-08-30T11:54:09;100667.03;;;22.92;65.16
45285;BME280;31026;43.780;25.948;2022-08-30T11:56:43;100662.16;;;22.95;65.18
45285;BME280;31026;43.780;25.948;2022-08-30T11:59:20;100667.91;;;22.92;65.09
45285;BME280;31026;43.780;25.948;2022-08-30T12:01:51;100670.75;;;22.91;65.28
45285;BME280;31026;43.780;25.948;2022-08-30T12:04:27;100657.25;;;23.50;63.61
45285;BME280;31026;43.780;25.948;2022-08-30T12:07:04;100647.59;;;24.05;62.30
45285;BME280;31026;43.780;25.948;2022-08-30T12:15:20;100643.84;;;24.78;60.09
45285;BME280;31026;43.780;25.948;2022-08-30T12:17:55;100631.47;;;24.84;59.94
45285;BME280;31026;43.780;25.948;2022-08-30T12:20:38;100637.31;;;24.95;59.79
45285;BME280;31026;43.780;25.948;2022-08-30T12:23:18;100629.34;;;25.02;60.09
45285;BME280;31026;43.780;25.948;2022-08-30T12:25:47;100620.00;;;25.05;60.84
45285;BME280;31026;43.780;25.948;2022-08-30T12:28:19;100633.19;;;25.08;60.16
45285;BME280;31026;43.780;25.948;2022-08-30T12:30:48;100605.09;;;25.09;60.14
45285;BME280;31026;43.780;25.948;2022-08-30T12:33:23;100615.88;;;25.17;60.09
45285;BME280;31026;43.780;25.948;2022-08-30T12:35:52;100606.25;;;25.14;60.21
45285;BME280;31026;43.780;25.948;2022-08-30T12:38:26;100608.47;;;25.11;60.66
45285;BME280;31026;43.780;25.948;2022-08-30T12:40:55;100602.03;;;25.12;60.31
45285;BME280;31026;43.780;25.948;2022-08-30T12:43:28;100606.38;;;25.21;59.93
45285;BME280;31026;43.780;25.948;2022-08-30T12:45:58;100604.03;;;25.18;59.74
45285;BME280;31026;43.780;25.948;2022-08-30T12:48:28;100579.69;;;25.18;59.95
45285;BME280;31026;43.780;25.948;2022-08-30T12:51:01;100573.25;;;25.19;60.13
45285;BME280;31026;43.780;25.948;2022-08-30T12:53:32;100574.25;;;25.18;62.44
45285;BME280;31026;43.780;25.948;2022-08-30T12:56:04;100585.81;;;25.12;63.31
45285;BME280;31026;43.780;25.948;2022-08-30T12:58:34;100576.47;;;25.14;62.63
45285;BME280;31026;43.780;25.948;2022-08-30T13:01:14;100587.50;;;25.13;62.55
45285;BME280;31026;43.780;25.948;2022-08-30T13:03:53;100587.69;;;25.11;63.38
45285;BME280;31026;43.780;25.948;2022-08-30T13:06:38;100578.03;;;25.09;62.27
45285;BME280;31026;43.780;25.948;2022-08-30T13:09:16;100571.94;;;25.15;63.03
45285;BME280;31026;43.780;25.948;2022-08-30T13:11:51;100583.19;;;25.27;62.02
45285;BME280;31026;43.780;25.948;2022-08-30T13:14:26;100569.84;;;25.25;62.61
45285;BME280;31026;43.780;25.948;2022-08-30T13:17:07;100572.22;;;25.20;62.73
45285;BME280;31026;43.780;25.948;2022-08-30T13:19:37;100561.38;;;25.20;63.26